Time;durP1;ratioP1;P1;durP2;ratioP2;P2;SDS_P1;SDS_P2;PMS_P1;PMS_P2;Temp;Humidity;BMP_temperature;BMP_pressure;BME280_temperature;BME280_humidity;BME280_pressure;Samples;Min_cycle;Max_cycle;Signal;HPM_P1;HPM_P2
2022/08/18 00:02:18;;;;;;;;;;;25.70;69.40;;;;;;5115999;28;19914;-77
2022/08/18 00:04:44;;;;;;;;;;;25.70;69.40;;;;;;5114502;28;20430;-77
2022/08/18 00:07:12;;;;;;;;;;;25.80;69.40;;;;;;5114306;28;19920;-78
2022/08/18 00:09:38;;;;;;;;;;;25.70;69.30;;;;;;5115596;28;19915;-76
2022/08/18 00:12:12;;;;;;;;;;;25.80;69.40;;;;;;5115298;28;19908;-76
2022/08/18 00:14:37;;;;;;;;;;;25.80;69.40;;;;;;5115593;28;19916;-77
2022/08/18 00:17:03;;;;;;;;;;;25.80;69.40;;;;;;5115361;28;19919;-77
2022/08/18 00:19:28;;;;;;;;;;;25.80;69.30;;;;;;5115968;28;20018;-75
2022/08/18 00:21:54;;;;;;;;;;;25.80;69.30;;;;;;5115410;28;19915;-77
2022/08/18 00:24:19;;;;;;;;;;;25.80;69.30;;;;;;5115581;28;19943;-77
2022/08/18 00:26:45;;;;;;;;;;;25.80;69.30;;;;;;5114898;28;19908;-76
2022/08/18 00:29:10;;;;;;;;;;;25.80;69.30;;;;;;5115102;28;19908;-77
2022/08/18 00:31:36;;;;;;;;;;;25.80;69.30;;;;;;5115186;28;19965;-77
2022/08/18 00:34:01;;;;;;;;;;;25.80;69.40;;;;;;5115455;28;19958;-76
2022/08/18 00:36:27;;;;;;;;;;;25.90;69.40;;;;;;5115314;28;20365;-77
2022/08/18 00:38:53;;;;;;;;;;;25.80;70.00;;;;;;5114953;28;19912;-77
2022/08/18 00:41:19;;;;;;;;;;;25.80;69.40;;;;;;5115011;28;19919;-76
2022/08/18 00:43:50;;;;;;;;;;;25.80;69.80;;;;;;5115088;28;19909;-77
2022/08/18 00:46:19;;;;;;;;;;;25.80;69.50;;;;;;5113772;28;19915;-76
2022/08/18 00:48:45;;;;;;;;;;;25.80;69.50;;;;;;5113879;28;19908;-77
2022/08/18 00:51:14;;;;;;;;;;;25.80;69.50;;;;;;5115089;28;19918;-77
2022/08/18 00:53:44;;;;;;;;;;;25.80;69.60;;;;;;5114557;28;19918;-77
2022/08/18 00:56:12;;;;;;;;;;;25.80;69.60;;;;;;5114821;28;19922;-76
2022/08/18 00:58:40;;;;;;;;;;;25.80;69.70;;;;;;5115302;28;20395;-77
2022/08/18 01:01:07;;;;;;;;;;;25.80;69.60;;;;;;5114517;28;19915;-76
2022/08/18 01:03:34;;;;;;;;;;;25.80;69.70;;;;;;5114774;28;20239;-77
2022/08/18 01:06:02;;;;;;;;;;;25.80;69.70;;;;;;5113101;28;20381;-77
2022/08/18 01:08:28;;;;;;;;;;;25.70;69.60;;;;;;5113232;28;20387;-76
2022/08/18 01:10:54;;;;;;;;;;;25.80;69.70;;;;;;5114950;28;19960;-76
2022/08/18 01:13:19;;;;;;;;;;;25.80;69.70;;;;;;5113711;28;20339;-76
2022/08/18 01:15:45;;;;;;;;;;;25.80;69.70;;;;;;5114932;28;19918;-77
2022/08/18 01:24:01;;;;;;;;;;;25.80;69.70;;;;;;5114821;28;19956;-77
2022/08/18 01:26:27;;;;;;;;;;;25.80;69.80;;;;;;5114401;28;19915;-77
2022/08/18 01:28:52;;;;;;;;;;;25.80;69.70;;;;;;5113301;28;20354;-77
2022/08/18 01:31:33;;;;;;;;;;;25.80;69.70;;;;;;5114404;28;19918;-77
2022/08/18 01:33:59;;;;;;;;;;;25.80;69.70;;;;;;5117008;28;19919;-77
2022/08/18 01:36:25;;;;;;;;;;;25.80;69.70;;;;;;5118561;28;19912;-77
2022/08/18 01:38:52;;;;;;;;;;;25.80;69.80;;;;;;5118283;28;19919;-76
2022/08/18 01:41:18;;;;;;;;;;;25.70;69.80;;;;;;5117119;28;20274;-77
2022/08/18 01:43:45;;;;;;;;;;;25.80;69.80;;;;;;5118366;28;19912;-77
2022/08/18 01:46:11;;;;;;;;;;;25.70;69.70;;;;;;5118377;28;19908;-77
2022/08/18 01:48:37;;;;;;;;;;;25.70;69.70;;;;;;5117141;28;20011;-77
2022/08/18 01:51:05;;;;;;;;;;;25.70;69.80;;;;;;5118240;27;19908;-76
2022/08/18 01:53:30;;;;;;;;;;;25.70;69.80;;;;;;5118114;28;20003;-77
2022/08/18 01:55:56;;;;;;;;;;;25.70;69.90;;;;;;5118274;28;19955;-77
2022/08/18 01:58:26;;;;;;;;;;;25.70;69.80;;;;;;5118114;28;19995;-76
2022/08/18 02:00:57;;;;;;;;;;;25.70;69.90;;;;;;5118630;28;19908;-76
2022/08/18 02:03:26;;;;;;;;;;;25.70;69.80;;;;;;5118723;28;20381;-76
2022/08/18 02:05:55;;;;;;;;;;;25.70;70.00;;;;;;5118075;28;19950;-76
2022/08/18 02:08:20;;;;;;;;;;;25.70;70.00;;;;;;5117829;28;20015;-76
2022/08/18 02:10:46;;;;;;;;;;;25.60;69.90;;;;;;5116696;28;20039;-76
2022/08/18 02:13:12;;;;;;;;;;;25.60;70.00;;;;;;5117878;28;19958;-76
2022/08/18 02:15:37;;;;;;;;;;;25.60;70.20;;;;;;5116701;28;19911;-77
2022/08/18 02:18:03;;;;;;;;;;;25.60;70.10;;;;;;5117596;28;19930;-76
2022/08/18 02:20:29;;;;;;;;;;;25.60;70.10;;;;;;5117940;28;20265;-77
2022/08/18 02:22:54;;;;;;;;;;;25.60;70.10;;;;;;5117817;28;19908;-77
2022/08/18 02:25:20;;;;;;;;;;;25.60;70.20;;;;;;5117528;28;19911;-76
2022/08/18 02:27:46;;;;;;;;;;;25.60;70.20;;;;;;5117877;28;19929;-77
2022/08/18 02:30:13;;;;;;;;;;;25.60;70.30;;;;;;5117614;28;19907;-77
2022/08/18 02:32:38;;;;;;;;;;;25.50;70.20;;;;;;5117397;28;19911;-77
2022/08/18 02:35:05;;;;;;;;;;;25.50;70.30;;;;;;5117599;28;19946;-77
2022/08/18 02:37:31;;;;;;;;;;;25.50;70.30;;;;;;5117241;28;19912;-77
2022/08/18 02:39:56;;;;;;;;;;;25.40;70.30;;;;;;5117384;28;20380;-76
2022/08/18 02:42:22;;;;;;;;;;;25.50;70.40;;;;;;5117199;28;19915;-78
2022/08/18 02:44:47;;;;;;;;;;;25.50;70.40;;;;;;5117091;28;19915;-77
2022/08/18 02:47:13;;;;;;;;;;;25.50;70.30;;;;;;5117111;28;19930;-77
2022/08/18 02:49:38;;;;;;;;;;;25.40;70.30;;;;;;5117278;28;20418;-78
2022/08/18 02:52:04;;;;;;;;;;;25.50;70.40;;;;;;5115778;28;19957;-77
2022/08/18 02:54:30;;;;;;;;;;;25.40;70.20;;;;;;5115511;28;20057;-75
2022/08/18 02:56:56;;;;;;;;;;;25.40;70.30;;;;;;5117344;28;19916;-77
2022/08/18 02:59:23;;;;;;;;;;;25.40;70.30;;;;;;5117550;28;19914;-76
2022/08/18 03:01:50;;;;;;;;;;;25.50;70.40;;;;;;5117184;28;19965;-81
2022/08/18 03:04:18;;;;;;;;;;;25.50;70.30;;;;;;5116966;28;19908;-76
2022/08/18 03:06:45;;;;;;;;;;;25.50;70.30;;;;;;5116575;28;19990;-77
2022/08/18 03:09:11;;;;;;;;;;;25.50;70.20;;;;;;5116841;28;19917;-77
2022/08/18 03:11:37;;;;;;;;;;;25.80;70.40;;;;;;5115376;28;20342;-78
2022/08/18 03:14:04;;;;;;;;;;;25.50;70.10;;;;;;5116448;28;19919;-77
2022/08/18 03:16:31;;;;;;;;;;;25.50;70.20;;;;;;5116631;28;20018;-77
2022/08/18 03:18:57;;;;;;;;;;;25.50;70.10;;;;;;5116858;28;20002;-77
2022/08/18 03:21:24;;;;;;;;;;;25.50;70.10;;;;;;5116446;28;20366;-77
2022/08/18 03:23:50;;;;;;;;;;;25.50;70.10;;;;;;5114943;28;19914;-77
2022/08/18 03:26:17;;;;;;;;;;;25.50;70.10;;;;;;5115738;28;19994;-77
2022/08/18 03:28:44;;;;;;;;;;;25.50;70.10;;;;;;5116297;28;20009;-76
2022/08/18 03:31:10;;;;;;;;;;;25.60;70.10;;;;;;5116314;28;19919;-77
2022/08/18 03:33:36;;;;;;;;;;;25.60;70.10;;;;;;5115181;28;20366;-75
2022/08/18 03:36:03;;;;;;;;;;;25.60;70.00;;;;;;5116360;28;20425;-76
2022/08/18 03:38:29;;;;;;;;;;;25.60;70.00;;;;;;5116529;28;20353;-77
2022/08/18 03:40:55;;;;;;;;;;;25.60;70.00;;;;;;5116867;28;19915;-77
2022/08/18 03:43:20;;;;;;;;;;;25.60;70.00;;;;;;5115983;28;19914;-75
2022/08/18 03:45:46;;;;;;;;;;;25.60;70.00;;;;;;5116111;28;19914;-77
2022/08/18 03:48:12;;;;;;;;;;;25.60;70.00;;;;;;5115904;28;19933;-77
2022/08/18 03:50:37;;;;;;;;;;;25.60;70.00;;;;;;5115910;28;19908;-77
2022/08/18 03:53:04;;;;;;;;;;;25.70;70.10;;;;;;5115603;28;20018;-77
2022/08/18 03:55:30;;;;;;;;;;;25.70;70.10;;;;;;5115827;28;19958;-77
2022/08/18 03:58:01;;;;;;;;;;;25.70;70.00;;;;;;5116826;28;20370;-78
2022/08/18 04:00:28;;;;;;;;;;;25.70;70.30;;;;;;5115777;28;19911;-78
2022/08/18 04:02:54;;;;;;;;;;;25.60;69.90;;;;;;5115674;28;19908;-78
2022/08/18 04:05:20;;;;;;;;;;;25.60;69.90;;;;;;5115484;28;19908;-78
2022/08/18 04:07:45;;;;;;;;;;;25.70;70.00;;;;;;5115484;28;20010;-77
2022/08/18 04:10:11;;;;;;;;;;;25.60;69.90;;;;;;5115405;28;19915;-77
2022/08/18 04:12:37;;;;;;;;;;;25.60;69.90;;;;;;5115757;28;19908;-77
2022/08/18 04:15:03;;;;;;;;;;;25.70;70.00;;;;;;5115418;28;19912;-76
2022/08/18 04:17:29;;;;;;;;;;;25.70;70.00;;;;;;5115585;28;20267;-77
2022/08/18 04:19:55;;;;;;;;;;;25.70;69.90;;;;;;5115299;28;19915;-78
2022/08/18 04:22:21;;;;;;;;;;;25.80;70.00;;;;;;5113744;28;20349;-77
2022/08/18 04:24:48;;;;;;;;;;;25.80;69.90;;;;;;5115165;28;19908;-77
2022/08/18 04:27:14;;;;;;;;;;;25.80;69.80;;;;;;5115393;28;19914;-77
2022/08/18 04:29:40;;;;;;;;;;;25.80;69.70;;;;;;5115278;28;19990;-78
2022/08/18 04:32:06;;;;;;;;;;;25.80;69.50;;;;;;5115073;28;19954;-77
2022/08/18 04:34:32;;;;;;;;;;;25.80;69.50;;;;;;5115033;28;19926;-77
2022/08/18 04:36:58;;;;;;;;;;;25.90;69.50;;;;;;5115209;28;19912;-77
2022/08/18 04:39:24;;;;;;;;;;;25.90;69.30;;;;;;5114957;28;19912;-77
2022/08/18 04:41:50;;;;;;;;;;;25.90;69.10;;;;;;5113647;28;20357;-77
2022/08/18 04:44:17;;;;;;;;;;;25.90;69.00;;;;;;5115099;28;19990;-77
2022/08/18 04:46:45;;;;;;;;;;;26.00;68.90;;;;;;5115003;28;19907;-76
2022/08/18 04:49:10;;;;;;;;;;;26.00;68.70;;;;;;5113598;28;19908;-77
2022/08/18 04:51:39;;;;;;;;;;;25.90;68.20;;;;;;5115317;27;20019;-77
2022/08/18 04:54:05;;;;;;;;;;;25.90;68.50;;;;;;5115161;28;20376;-77
2022/08/18 04:56:33;;;;;;;;;;;25.90;68.40;;;;;;5114782;28;19912;-77
2022/08/18 04:59:00;;;;;;;;;;;25.90;68.50;;;;;;5113161;28;20277;-77
2022/08/18 05:01:28;;;;;;;;;;;25.90;68.40;;;;;;5114569;28;19915;-77
2022/08/18 05:03:55;;;;;;;;;;;26.00;68.40;;;;;;5114701;28;19953;-78
2022/08/18 05:06:24;;;;;;;;;;;26.00;68.20;;;;;;5114107;28;19935;-77
2022/08/18 05:09:00;;;;;;;;;;;26.00;68.10;;;;;;5114473;28;19919;-76
2022/08/18 05:11:36;;;;;;;;;;;26.00;67.60;;;;;;5114845;28;19908;-78
2022/08/18 05:14:02;;;;;;;;;;;26.00;67.60;;;;;;5114599;28;19912;-78
2022/08/18 05:16:35;;;;;;;;;;;26.00;67.50;;;;;;5114545;28;20416;-77
2022/08/18 05:19:05;;;;;;;;;;;26.00;67.60;;;;;;5114447;28;19911;-77
2022/08/18 05:21:31;;;;;;;;;;;25.90;67.50;;;;;;5113351;28;20269;-77
2022/08/18 05:23:57;;;;;;;;;;;26.00;67.30;;;;;;5113265;28;19907;-77
2022/08/18 05:26:23;;;;;;;;;;;25.90;67.40;;;;;;5114237;28;19908;-78
2022/08/18 05:28:48;;;;;;;;;;;25.90;67.50;;;;;;5114262;28;19919;-77
2022/08/18 05:31:16;;;;;;;;;;;25.90;67.60;;;;;;5114245;28;19934;-78
2022/08/18 05:33:41;;;;;;;;;;;25.90;67.50;;;;;;5114100;28;19912;-77
2022/08/18 05:36:27;;;;;;;;;;;25.90;67.30;;;;;;5115532;28;20282;-78
2022/08/18 05:39:02;;;;;;;;;;;25.90;67.10;;;;;;5109727;28;19919;-77
2022/08/18 05:41:42;;;;;;;;;;;25.90;67.10;;;;;;5114340;28;20243;-77
2022/08/18 05:44:11;;;;;;;;;;;26.00;67.20;;;;;;5113049;28;19977;-77
2022/08/18 05:46:45;;;;;;;;;;;26.00;67.00;;;;;;5114195;28;19961;-77
2022/08/18 05:49:12;;;;;;;;;;;26.00;67.20;;;;;;5113988;28;19908;-77
2022/08/18 05:51:40;;;;;;;;;;;26.00;67.10;;;;;;5113912;28;19908;-77
2022/08/18 05:56:51;;;;;;;;;;;26.00;66.80;;;;;;5114505;28;20380;-78
2022/08/18 05:59:21;;;;;;;;;;;26.00;66.30;;;;;;5114116;28;20003;-78
2022/08/18 06:01:51;;;;;;;;;;;26.00;66.80;;;;;;5113764;28;19908;-76
2022/08/18 06:04:25;;;;;;;;;;;26.00;66.80;;;;;;5114767;28;19908;-77
2022/08/18 06:06:51;;;;;;;;;;;26.00;66.70;;;;;;5114197;28;19919;-76
2022/08/18 06:09:22;;;;;;;;;;;26.10;66.80;;;;;;5114503;28;19908;-77
2022/08/18 06:11:49;;;;;;;;;;;26.10;66.60;;;;;;5113848;28;19908;-77
2022/08/18 06:14:15;;;;;;;;;;;26.10;66.30;;;;;;5113942;28;19912;-77
2022/08/18 06:16:49;;;;;;;;;;;26.10;65.70;;;;;;5113751;28;20297;-77
2022/08/18 06:19:23;;;;;;;;;;;26.00;66.00;;;;;;5116737;28;19929;-77
2022/08/18 06:21:54;;;;;;;;;;;26.00;66.40;;;;;;5116864;27;19954;-77
2022/08/18 06:24:38;;;;;;;;;;;26.00;66.40;;;;;;5117426;28;19958;-78
2022/08/18 06:27:16;;;;;;;;;;;26.10;66.30;;;;;;5117249;27;20002;-78
2022/08/18 06:29:46;;;;;;;;;;;26.10;66.30;;;;;;5117600;28;19908;-77
2022/08/18 06:32:18;;;;;;;;;;;26.10;66.10;;;;;;5117138;28;19908;-77
2022/08/18 06:34:46;;;;;;;;;;;26.10;66.00;;;;;;5117528;28;19920;-78
2022/08/18 06:37:17;;;;;;;;;;;26.20;65.70;;;;;;5116752;28;19912;-78
2022/08/18 06:39:47;;;;;;;;;;;26.20;65.70;;;;;;5115712;28;19908;-77
2022/08/18 06:42:29;;;;;;;;;;;26.20;65.20;;;;;;5117179;27;19930;-78
2022/08/18 06:45:03;;;;;;;;;;;26.20;65.30;;;;;;5117291;28;19940;-78
2022/08/18 06:47:32;;;;;;;;;;;26.10;65.40;;;;;;5115993;28;20415;-78
2022/08/18 06:49:57;;;;;;;;;;;26.10;65.80;;;;;;5116894;28;20002;-78
2022/08/18 06:52:29;;;;;;;;;;;26.10;65.10;;;;;;5115906;28;20423;-77
2022/08/18 06:55:15;;;;;;;;;;;26.10;65.40;;;;;;5117065;28;19916;-78
2022/08/18 06:57:53;;;;;;;;;;;26.10;65.00;;;;;;5116716;28;19919;-77
2022/08/18 07:00:18;;;;;;;;;;;26.10;65.30;;;;;;5116964;28;19907;-78
2022/08/18 07:02:49;;;;;;;;;;;26.10;65.50;;;;;;5116636;28;20007;-77
2022/08/18 07:05:18;;;;;;;;;;;26.10;65.40;;;;;;5116709;28;19908;-77
2022/08/18 07:07:44;;;;;;;;;;;26.10;65.60;;;;;;5116641;28;19920;-77
2022/08/18 07:10:12;;;;;;;;;;;26.10;65.30;;;;;;5116866;28;19907;-77
2022/08/18 07:12:38;;;;;;;;;;;26.10;65.30;;;;;;5116484;28;19931;-78
2022/08/18 07:15:06;;;;;;;;;;;26.10;65.30;;;;;;5116384;28;20353;-77
2022/08/18 07:17:38;;;;;;;;;;;26.20;65.60;;;;;;5117433;28;19912;-77
2022/08/18 07:20:07;;;;;;;;;;;26.20;65.40;;;;;;5116739;28;19915;-78
2022/08/18 07:22:51;;;;;;;;;;;26.20;65.40;;;;;;5115417;28;20317;-77
2022/08/18 07:25:37;;;;;;;;;;;26.20;65.30;;;;;;5116240;27;20002;-77
2022/08/18 07:28:03;;;;;;;;;;;26.30;64.80;;;;;;5114668;28;19908;-77
2022/08/18 07:30:31;;;;;;;;;;;26.30;65.30;;;;;;5115327;28;19912;-77
2022/08/18 07:32:56;;;;;;;;;;;26.30;65.30;;;;;;5115628;28;19915;-77
2022/08/18 07:35:24;;;;;;;;;;;26.30;65.30;;;;;;5116561;28;20293;-78
2022/08/18 07:38:00;;;;;;;;;;;26.40;65.20;;;;;;5116187;28;19994;-76
2022/08/18 07:40:33;;;;;;;;;;;26.40;65.80;;;;;;5116045;28;19933;-77
2022/08/18 07:43:00;;;;;;;;;;;26.40;65.70;;;;;;5115974;28;19965;-76
2022/08/18 07:45:30;;;;;;;;;;;26.40;65.00;;;;;;5115656;28;20327;-81
2022/08/18 07:48:16;;;;;;;;;;;26.50;64.70;;;;;;5115991;28;20389;-77
2022/08/18 07:50:51;;;;;;;;;;;26.50;64.80;;;;;;5115904;28;19943;-76
2022/08/18 07:53:25;;;;;;;;;;;26.50;64.60;;;;;;5114509;28;20246;-77
2022/08/18 07:55:54;;;;;;;;;;;26.50;64.50;;;;;;5115742;28;19912;-79
2022/08/18 07:58:20;;;;;;;;;;;26.50;64.00;;;;;;5115726;28;19933;-79
2022/08/18 08:00:51;;;;;;;;;;;26.50;63.50;;;;;;5115470;28;19908;-77
2022/08/18 08:03:32;;;;;;;;;;;26.40;64.60;;;;;;5114303;28;19908;-78
2022/08/18 08:06:04;;;;;;;;;;;26.40;64.50;;;;;;5115393;28;19907;-76
2022/08/18 08:08:36;;;;;;;;;;;26.40;64.60;;;;;;5114220;28;19962;-77
2022/08/18 08:11:20;;;;;;;;;;;26.40;64.60;;;;;;5115352;28;19908;-77
2022/08/18 08:14:12;;;;;;;;;;;26.50;64.70;;;;;;5115465;28;19919;-78
2022/08/18 08:16:49;;;;;;;;;;;26.50;64.20;;;;;;5114624;28;19965;-77
2022/08/18 08:19:32;;;;;;;;;;;26.50;64.30;;;;;;5115143;28;19977;-77
2022/08/18 08:22:08;;;;;;;;;;;26.60;64.20;;;;;;5115204;28;19912;-77
2022/08/18 08:24:52;;;;;;;;;;;26.60;64.30;;;;;;5115359;28;19994;-77
2022/08/18 08:27:17;;;;;;;;;;;26.60;64.20;;;;;;5115470;28;19908;-77
2022/08/18 08:29:57;;;;;;;;;;;26.70;64.20;;;;;;5115377;28;19961;-77
2022/08/18 08:32:29;;;;;;;;;;;26.60;64.00;;;;;;5115365;28;20002;-77
2022/08/18 08:34:58;;;;;;;;;;;26.70;64.00;;;;;;5115306;28;19916;-78
2022/08/18 08:37:29;;;;;;;;;;;26.70;63.90;;;;;;5115270;28;19915;-77
2022/08/18 08:40:21;;;;;;;;;;;26.70;64.20;;;;;;5114993;28;19998;-78
2022/08/18 08:42:49;;;;;;;;;;;26.70;63.70;;;;;;5113777;28;19914;-77
2022/08/18 08:45:19;;;;;;;;;;;26.70;63.90;;;;;;5114605;28;20006;-77
2022/08/18 08:48:16;;;;;;;;;;;26.70;63.50;;;;;;5114744;28;19907;-76
2022/08/18 08:50:45;;;;;;;;;;;26.70;63.50;;;;;;5102204;28;19908;-77
2022/08/18 08:53:16;;;;;;;;;;;26.80;63.70;;;;;;5114721;28;19912;-77
2022/08/18 08:55:47;;;;;;;;;;;26.70;63.40;;;;;;5114701;28;19920;-77
2022/08/18 08:58:19;;;;;;;;;;;26.80;63.40;;;;;;5114424;28;19915;-77
2022/08/18 09:00:46;;;;;;;;;;;26.80;63.10;;;;;;5114526;28;20384;-77
2022/08/18 09:03:30;;;;;;;;;;;26.80;63.20;;;;;;5113155;28;19908;-77
2022/08/18 09:05:56;;;;;;;;;;;26.80;63.10;;;;;;5114270;28;19908;-77
2022/08/18 09:08:29;;;;;;;;;;;26.80;63.00;;;;;;5114379;28;19926;-77
2022/08/18 09:11:03;;;;;;;;;;;26.90;62.90;;;;;;5114403;28;19930;-77
2022/08/18 09:13:37;;;;;;;;;;;26.90;63.20;;;;;;5112928;28;19922;-77
2022/08/18 09:16:06;;;;;;;;;;;26.90;63.30;;;;;;5114117;28;19912;-78
2022/08/18 09:18:50;;;;;;;;;;;26.90;63.00;;;;;;5114269;28;20265;-77
2022/08/18 09:21:20;;;;;;;;;;;26.90;63.00;;;;;;5113583;28;19908;-76
2022/08/18 09:23:46;;;;;;;;;;;26.90;62.70;;;;;;5114327;28;20040;-77
2022/08/18 09:26:24;;;;;;;;;;;27.00;62.80;;;;;;5112857;28;19908;-79
2022/08/18 09:28:55;;;;;;;;;;;27.00;62.80;;;;;;5114308;28;20258;-77
2022/08/18 09:31:22;;;;;;;;;;;27.00;62.60;;;;;;5112821;28;19915;-78
2022/08/18 09:33:57;;;;;;;;;;;27.00;62.70;;;;;;5113109;28;19912;-77
2022/08/18 09:36:34;;;;;;;;;;;27.00;62.60;;;;;;5114057;28;19912;-77
2022/08/18 09:42:06;;;;;;;;;;;27.10;62.20;;;;;;5113542;28;20254;-78
2022/08/18 09:44:44;;;;;;;;;;;27.10;62.00;;;;;;5112537;28;19907;-77
2022/08/18 09:47:10;;;;;;;;;;;27.10;61.90;;;;;;5113836;28;20262;-77
2022/08/18 09:49:41;;;;;;;;;;;27.10;61.60;;;;;;5114523;28;19954;-77
2022/08/18 09:52:21;;;;;;;;;;;27.10;61.70;;;;;;5112733;28;20001;-77
2022/08/18 09:54:51;;;;;;;;;;;27.10;61.80;;;;;;5117532;28;20007;-77
2022/08/18 09:57:23;;;;;;;;;;;26.80;61.40;;;;;;5118072;28;20380;-76
2022/08/18 09:59:48;;;;;;;;;;;27.20;61.90;;;;;;5118241;28;19908;-77
2022/08/18 10:02:34;;;;;;;;;;;27.20;61.80;;;;;;5118460;28;20354;-78
2022/08/18 10:05:18;;;;;;;;;;;27.20;61.50;;;;;;5108887;28;19907;-78
2022/08/18 10:08:02;;;;;;;;;;;27.30;61.80;;;;;;5118066;28;19920;-77
2022/08/18 10:10:27;;;;;;;;;;;27.30;61.50;;;;;;5117571;28;19933;-80
2022/08/18 10:13:07;;;;;;;;;;;27.30;61.20;;;;;;5117958;28;19908;-77
2022/08/18 10:15:46;;;;;;;;;;;27.30;61.20;;;;;;5117732;28;19927;-77
2022/08/18 10:18:31;;;;;;;;;;;27.30;61.30;;;;;;5117754;27;19912;-77
2022/08/18 10:21:02;;;;;;;;;;;27.40;61.20;;;;;;5117734;28;19916;-77
2022/08/18 10:23:46;;;;;;;;;;;27.40;61.00;;;;;;5117476;28;19908;-77
2022/08/18 10:26:30;;;;;;;;;;;27.40;61.40;;;;;;5117344;28;19998;-77
2022/08/18 10:29:00;;;;;;;;;;;27.40;61.40;;;;;;5117173;28;19908;-77
2022/08/18 10:31:27;;;;;;;;;;;27.50;61.10;;;;;;5117264;28;20011;-77
2022/08/18 10:33:58;;;;;;;;;;;27.50;61.20;;;;;;5117092;28;19912;-77
2022/08/18 10:36:32;;;;;;;;;;;27.50;61.10;;;;;;5117115;28;20316;-78
2022/08/18 10:38:57;;;;;;;;;;;27.50;60.90;;;;;;5117144;28;20346;-77
2022/08/18 10:41:27;;;;;;;;;;;27.60;61.10;;;;;;5117207;28;19947;-77
2022/08/18 10:43:53;;;;;;;;;;;27.60;61.00;;;;;;5117665;28;20007;-77
2022/08/18 10:46:22;;;;;;;;;;;27.60;61.10;;;;;;5117111;28;19972;-77
2022/08/18 10:49:01;;;;;;;;;;;27.60;60.90;;;;;;5117224;28;20294;-78
2022/08/18 10:51:27;;;;;;;;;;;27.70;60.80;;;;;;5118045;28;20409;-77
2022/08/18 10:53:57;;;;;;;;;;;27.70;60.70;;;;;;5115720;28;20052;-77
2022/08/18 10:56:28;;;;;;;;;;;27.70;60.80;;;;;;5115701;28;20274;-77
2022/08/18 10:59:12;;;;;;;;;;;27.70;60.80;;;;;;5117353;28;19915;-77
2022/08/18 11:01:50;;;;;;;;;;;27.80;60.00;;;;;;5115559;28;19908;-76
2022/08/18 11:04:25;;;;;;;;;;;27.80;60.10;;;;;;5117033;28;19908;-76
2022/08/18 11:06:59;;;;;;;;;;;27.80;60.70;;;;;;5116886;28;20031;-77
2022/08/18 11:09:25;;;;;;;;;;;27.80;60.60;;;;;;5117365;28;19912;-77
2022/08/18 11:11:52;;;;;;;;;;;27.80;60.50;;;;;;5116851;28;20372;-78
2022/08/18 11:14:27;;;;;;;;;;;27.90;60.60;;;;;;5116871;28;19919;-78
2022/08/18 11:16:52;;;;;;;;;;;27.90;60.50;;;;;;5116185;28;19919;-78
2022/08/18 11:19:19;;;;;;;;;;;27.90;60.50;;;;;;5116407;28;19930;-78
2022/08/18 11:21:46;;;;;;;;;;;27.90;60.40;;;;;;5116450;28;19924;-77
2022/08/18 11:24:11;;;;;;;;;;;27.90;60.40;;;;;;5116376;28;19907;-77
2022/08/18 11:26:47;;;;;;;;;;;28.00;60.40;;;;;;5116375;28;19914;-77
2022/08/18 11:29:30;;;;;;;;;;;28.00;60.40;;;;;;5116642;28;19961;-76
2022/08/18 11:32:05;;;;;;;;;;;28.00;60.40;;;;;;5116684;28;19915;-76
2022/08/18 11:34:39;;;;;;;;;;;28.00;60.50;;;;;;5116469;28;20357;-77
2022/08/18 11:37:06;;;;;;;;;;;28.00;60.20;;;;;;5116256;28;19916;-78
2022/08/18 11:39:32;;;;;;;;;;;28.00;60.00;;;;;;5115970;28;19947;-77
2022/08/18 11:41:58;;;;;;;;;;;28.00;60.10;;;;;;5116181;28;19920;-77
2022/08/18 11:44:25;;;;;;;;;;;28.10;60.20;;;;;;5116366;28;20361;-75
2022/08/18 11:46:56;;;;;;;;;;;28.10;60.10;;;;;;5116050;28;20362;-78
2022/08/18 11:49:29;;;;;;;;;;;28.10;60.00;;;;;;5114627;28;20358;-77
2022/08/18 11:51:54;;;;;;;;;;;28.10;59.80;;;;;;5115849;28;19908;-77
2022/08/18 11:54:20;;;;;;;;;;;28.20;60.00;;;;;;5115568;28;20449;-77
2022/08/18 11:56:46;;;;;;;;;;;28.10;59.70;;;;;;5114474;28;19957;-77
2022/08/18 11:59:24;;;;;;;;;;;28.20;60.00;;;;;;5116612;28;19915;-75
2022/08/18 12:01:50;;;;;;;;;;;28.20;60.00;;;;;;5115119;28;19911;-78
2022/08/18 12:04:19;;;;;;;;;;;28.20;59.80;;;;;;5114305;28;19914;-77
2022/08/18 12:06:51;;;;;;;;;;;28.20;59.80;;;;;;5115510;28;19985;-77
2022/08/18 12:09:16;;;;;;;;;;;28.20;59.90;;;;;;5115475;28;20388;-76
2022/08/18 12:11:55;;;;;;;;;;;28.30;60.00;;;;;;5115522;28;19908;-77
2022/08/18 12:14:22;;;;;;;;;;;28.30;59.70;;;;;;5114324;28;19912;-76
2022/08/18 12:16:48;;;;;;;;;;;28.30;59.50;;;;;;5114786;28;19912;-77
2022/08/18 12:19:14;;;;;;;;;;;28.30;59.70;;;;;;5115413;28;19994;-77
2022/08/18 12:21:45;;;;;;;;;;;28.30;59.50;;;;;;5115392;28;20005;-77
2022/08/18 12:24:20;;;;;;;;;;;28.40;59.60;;;;;;5115416;28;19914;-77
2022/08/18 12:26:45;;;;;;;;;;;28.40;59.90;;;;;;5113765;28;19908;-76
2022/08/18 12:29:11;;;;;;;;;;;28.40;60.00;;;;;;5115577;28;19961;-77
2022/08/18 12:31:37;;;;;;;;;;;28.40;59.60;;;;;;5115213;28;19941;-77
2022/08/18 12:34:03;;;;;;;;;;;28.40;59.40;;;;;;5115144;28;20010;-77
2022/08/18 12:36:29;;;;;;;;;;;28.50;59.40;;;;;;5115046;28;19958;-77
2022/08/18 12:38:54;;;;;;;;;;;28.50;59.80;;;;;;5113728;28;19954;-77
2022/08/18 12:41:20;;;;;;;;;;;28.50;59.50;;;;;;5114799;28;19907;-77
2022/08/18 12:43:46;;;;;;;;;;;28.50;59.30;;;;;;5114822;28;19908;-76
2022/08/18 12:46:12;;;;;;;;;;;28.60;59.20;;;;;;5114561;28;19908;-78
2022/08/18 12:48:38;;;;;;;;;;;28.60;59.20;;;;;;5114878;28;19915;-77
2022/08/18 12:51:04;;;;;;;;;;;28.70;59.20;;;;;;5115364;28;19908;-77
2022/08/18 12:53:29;;;;;;;;;;;28.70;59.20;;;;;;5116303;28;20285;-76
2022/08/18 12:55:55;;;;;;;;;;;28.70;59.10;;;;;;5114596;28;19923;-78
2022/08/18 12:58:21;;;;;;;;;;;28.90;60.10;;;;;;5114772;28;19908;-77
2022/08/18 13:00:47;;;;;;;;;;;28.90;59.00;;;;;;5114619;28;20361;-77
2022/08/18 13:03:13;;;;;;;;;;;29.00;59.00;;;;;;5114377;28;20334;-78
2022/08/18 13:05:39;;;;;;;;;;;29.00;58.90;;;;;;5115054;28;19969;-78
2022/08/18 13:08:07;;;;;;;;;;;29.10;58.60;;;;;;5114519;28;20328;-77
2022/08/18 13:10:33;;;;;;;;;;;29.20;58.70;;;;;;5115411;28;19914;-76
2022/08/18 13:12:58;;;;;;;;;;;29.20;58.40;;;;;;5114995;28;19955;-77
2022/08/18 13:15:24;;;;;;;;;;;29.30;58.40;;;;;;5114251;28;20316;-77
2022/08/18 13:17:49;;;;;;;;;;;29.30;58.30;;;;;;5117258;28;19916;-76
2022/08/18 13:20:16;;;;;;;;;;;29.40;58.70;;;;;;5119054;28;19953;-76
2022/08/18 13:22:41;;;;;;;;;;;29.50;58.70;;;;;;5116176;28;20056;-79
2022/08/18 13:25:09;;;;;;;;;;;29.60;58.80;;;;;;5114550;28;19961;-77
2022/08/18 13:27:35;;;;;;;;;;;29.70;58.70;;;;;;5114355;28;19908;-76
2022/08/18 13:30:02;;;;;;;;;;;29.90;58.30;;;;;;5117128;28;19908;-78
2022/08/18 13:32:28;;;;;;;;;;;30.10;57.70;;;;;;5117322;28;19987;-78
2022/08/18 13:34:54;;;;;;;;;;;30.40;57.40;;;;;;5118523;28;20019;-77
2022/08/18 13:37:19;;;;;;;;;;;30.80;59.00;;;;;;5118129;28;19912;-78
2022/08/18 13:39:45;;;;;;;;;;;31.00;57.60;;;;;;5118470;28;19911;-75
2022/08/18 13:42:10;;;;;;;;;;;31.40;58.50;;;;;;5118647;28;20245;-77
2022/08/18 13:44:36;;;;;;;;;;;31.80;57.70;;;;;;5118409;28;20011;-77
2022/08/18 13:47:02;;;;;;;;;;;32.20;58.20;;;;;;5118275;28;19930;-78
2022/08/18 13:49:28;;;;;;;;;;;32.60;56.60;;;;;;5118658;28;19908;-77
2022/08/18 13:51:58;;;;;;;;;;;32.90;56.70;;;;;;5118540;28;19912;-78
2022/08/18 13:54:25;;;;;;;;;;;33.30;57.70;;;;;;5118182;28;19912;-78
2022/08/18 13:56:52;;;;;;;;;;;33.60;58.20;;;;;;5118293;28;19912;-78
2022/08/18 13:59:19;;;;;;;;;;;33.90;55.70;;;;;;5116945;28;19907;-77
2022/08/18 14:01:44;;;;;;;;;;;34.10;56.20;;;;;;5118015;28;19915;-77
2022/08/18 14:04:11;;;;;;;;;;;34.20;56.30;;;;;;5117904;28;19908;-78
2022/08/18 14:06:37;;;;;;;;;;;34.30;57.90;;;;;;5117679;28;19919;-77
2022/08/18 14:09:03;;;;;;;;;;;34.40;56.60;;;;;;5117754;28;19915;-78
2022/08/18 14:11:29;;;;;;;;;;;34.50;54.20;;;;;;5117714;28;19912;-78
2022/08/18 14:13:55;;;;;;;;;;;34.60;54.20;;;;;;5117749;28;19965;-78
2022/08/18 14:16:23;;;;;;;;;;;34.90;54.30;;;;;;5116917;28;21336;-78
2022/08/18 14:27:07;;;;;;;;;;;35.80;52.10;;;;;;5117528;28;19992;-76
2022/08/18 14:29:33;;;;;;;;;;;36.00;52.50;;;;;;5117427;28;19907;-77
2022/08/18 14:31:59;;;;;;;;;;;36.30;52.70;;;;;;5117570;28;19912;-77
2022/08/18 14:34:24;;;;;;;;;;;36.50;51.50;;;;;;5117152;28;20300;-77
2022/08/18 14:36:50;;;;;;;;;;;36.70;51.80;;;;;;5117925;28;20376;-78
2022/08/18 14:39:15;;;;;;;;;;;36.80;50.60;;;;;;5116824;28;20381;-77
2022/08/18 14:41:41;;;;;;;;;;;37.00;52.10;;;;;;5116802;28;20407;-78
2022/08/18 14:44:06;;;;;;;;;;;37.10;51.30;;;;;;5117037;28;20277;-78
2022/08/18 14:46:33;;;;;;;;;;;37.30;50.60;;;;;;5115679;28;19961;-77
2022/08/18 14:48:59;;;;;;;;;;;37.40;50.60;;;;;;5117205;28;19912;-77